Pelican State — WDE4433 — position and weather

sailwx.info

Track history (hours):
 
Tides and Currents Weather Stations Pressure Air Temp Water Temp Dewpoint Dewpoint Depression Visibility Wind Speed Wind Dir Waves Ship Positions

Pelican State

Owner: Crowley Petroleum Serives, Jacksonville, FL. More information available from US FCC via Universal Licensing System and Coast Guard Vessel Documentation Center.

Last reported at 2016-Jul-26 02:21 UTC. Time now 2016-Jul-26 10:18 UTC.
Position N 30°04' W 093°43'.

Length 183 m; draft 8.5 m.

Type: Tanker. MMSI: 367353110.

Date/timePositionNaut miles runAvg speedWind from/ knotsBaromVisibWave heightAir tempDewpointWater temp
2016-Jul-26 02:21N 30°04' W 093°43'0 0.0
2016-Jul-26 01:27N 30°04' W 093°43'0 0.0
2016-Jul-26 00:29N 30°04' W 093°43'0 0.0
2016-Jul-25 23:33N 30°04' W 093°43'  
2016-Jul-21 22:33N 30°04' W 093°43'2 2.1
2016-Jul-21 21:34N 30°02' W 093°44'6 6.5
2016-Jul-21 20:33N 29°58' W 093°50'5 5.4
2016-Jul-21 19:34N 29°54' W 093°54'25 7.8
2016-Jul-21 16:21N 29°31' W 093°43'7 9.2
2016-Jul-21 15:32N 29°24' W 093°40'1111.1
2016-Jul-21 14:31N 29°13' W 093°39'1111.2
2016-Jul-21 13:34N 29°03' W 093°35'8 8.3
2016-Jul-21 12:33N 28°56' W 093°29'9 8.7
2016-Jul-21 11:29N 28°49' W 093°23'10 8.8
2016-Jul-21 10:22N 28°41' W 093°16'1211.7
2016-Jul-21 09:22N 28°32' W 093°08'1012.1
2016-Jul-21 08:33N 28°24' W 093°01'1211.9
2016-Jul-21 07:32N 28°14' W 092°53'  
Track history (hours):
 
Tides and Currents Weather Stations Pressure Air Temp Water Temp Dewpoint Dewpoint Depression Visibility Wind Speed Wind Dir Waves Ship Positions

Pelican State

Owner: Crowley Petroleum Serives, Jacksonville, FL. More information available from US FCC via Universal Licensing System and Coast Guard Vessel Documentation Center.

Last reported at 2016-Jul-26 02:21 UTC. Time now 2016-Jul-26 10:18 UTC.
Position N 30°04' W 093°43'.

Length 183 m; draft 8.5 m.

Type: Tanker. MMSI: 367353110.

Date/timePositionNaut miles runAvg speedWind from/ knotsBaromVisibWave heightAir tempDewpointWater temp
2016-Jul-26 02:21N 30°04' W 093°43'0 0.0
2016-Jul-26 01:27N 30°04' W 093°43'0 0.0
2016-Jul-26 00:29N 30°04' W 093°43'0 0.0
2016-Jul-25 23:33N 30°04' W 093°43'  
2016-Jul-21 22:33N 30°04' W 093°43'2 2.1
2016-Jul-21 21:34N 30°02' W 093°44'6 6.5
2016-Jul-21 20:33N 29°58' W 093°50'5 5.4
2016-Jul-21 19:34N 29°54' W 093°54'25 7.8
2016-Jul-21 16:21N 29°31' W 093°43'7 9.2
2016-Jul-21 15:32N 29°24' W 093°40'1111.1
2016-Jul-21 14:31N 29°13' W 093°39'1111.2
2016-Jul-21 13:34N 29°03' W 093°35'8 8.3
2016-Jul-21 12:33N 28°56' W 093°29'9 8.7
2016-Jul-21 11:29N 28°49' W 093°23'10 8.8
2016-Jul-21 10:22N 28°41' W 093°16'1211.7
2016-Jul-21 09:22N 28°32' W 093°08'1012.1
2016-Jul-21 08:33N 28°24' W 093°01'1211.9
2016-Jul-21 07:32N 28°14' W 092°53'  

Dump ship's entire track history